Egan, South Dakota
Current Conditions -  °F | °C
As of 2:14 PM on Sunday 21 Dec 2014 (Local Time) from KPQN Reporting Station
Unknown Precip Unknown Precip  
Wind Chill: 25°   Ceiling: 100
Heat Index: 34°   Visibility: 0.25mi
Dew Point: 34°   Wind: 12mph
Humidity: 100%   Direction: 190°S
Pressure: 29.62"   Gusts: NA
Location:  44°N, 96.65°W
Report Text: KPQN 212014Z AUTO 19010KT 1/4SM UP OVC001 01/01 A2962 RMK AO2
Loading
Personal Weather Stations






























Interactive Weather Map New forecast layout! Learn more

10-Day Weather Forecast

Advertisements
Track Severe Weather on mobile